CLT weather

Charlotte Douglas International Airport
Charlotte, North Carolina, United States

Public forecast

Using degrees Fahrenheit for public forecast. Weather courtesy of forecast.io.

METAR (pilot weather report)

Retrieved 2018/02/18 22:52 UTC (53 minutes ago):

KCLT 182252Z 13008KT 10SM FEW055 BKN250 16/03 A3032 RMK AO2 SLP264 T01610028

TAF (pilot weather forecast)

Retrieved 2018/02/18 18:42 UTC (5 hours ago):

TAF KCLT 181739Z 1818/1924 06007KT P6SM FEW050 SCT250 FM190100 10004KT P6SM BKN045 PROB30 1905/1907 4SM -RA OVC015 FM190700 07004KT 6SM -RA SCT007 OVC015 FM191000 05004KT 5SM BR SCT004 OVC007 PROB30 1910/1914 2SM -RA BR OVC004 FM191600 VRB03KT P6SM OVC005 FM192200 VRB03KT P6SM BKN010